sensor_id;sensor_type;location;lat;lon;timestamp;pressure;altitude;pressure_sealevel;temperature;humidity
3142;BME280;1581;51.568;6.998;2023-07-13T00:00:01;100734.81;;;18.72;100.00
3142;BME280;1581;51.568;6.998;2023-07-13T00:02:35;100745.28;;;18.68;100.00
3142;BME280;1581;51.568;6.998;2023-07-13T00:05:04;100741.53;;;18.69;100.00
3142;BME280;1581;51.568;6.998;2023-07-13T00:07:32;100750.47;;;18.58;100.00
3142;BME280;1581;51.568;6.998;2023-07-13T00:10:00;100747.44;;;18.55;100.00
3142;BME280;1581;51.568;6.998;2023-07-13T00:12:31;100746.19;;;18.46;100.00
3142;BME280;1581;51.568;6.998;2023-07-13T00:15:02;100742.69;;;18.34;100.00
3142;BME280;1581;51.568;6.998;2023-07-13T00:17:31;100761.63;;;18.22;100.00
3142;BME280;1581;51.568;6.998;2023-07-13T00:20:01;100750.91;;;18.16;100.00
3142;BME280;1581;51.568;6.998;2023-07-13T00:22:30;100746.34;;;18.05;100.00
3142;BME280;1581;51.568;6.998;2023-07-13T00:24:58;100755.28;;;17.94;100.00
3142;BME280;1581;51.568;6.998;2023-07-13T00:27:25;100745.44;;;18.00;100.00
3142;BME280;1581;51.568;6.998;2023-07-13T00:29:58;100749.88;;;17.94;100.00
3142;BME280;1581;51.568;6.998;2023-07-13T00:32:26;100746.38;;;17.82;100.00
3142;BME280;1581;51.568;6.998;2023-07-13T00:34:54;100751.19;;;17.69;100.00
3142;BME280;1581;51.568;6.998;2023-07-13T00:37:26;100759.16;;;17.75;100.00
3142;BME280;1581;51.568;6.998;2023-07-13T00:39:58;100754.22;;;17.72;100.00
3142;BME280;1581;51.568;6.998;2023-07-13T00:42:26;100751.53;;;17.84;100.00
3142;BME280;1581;51.568;6.998;2023-07-13T00:46:02;100751.75;;;17.82;100.00
3142;BME280;1581;51.568;6.998;2023-07-13T00:47:57;100749.19;;;17.87;100.00
3142;BME280;1581;51.568;6.998;2023-07-13T00:50:32;100752.84;;;17.81;100.00
3142;BME280;1581;51.568;6.998;2023-07-13T00:53:02;100746.28;;;17.66;100.00
3142;BME280;1581;51.568;6.998;2023-07-13T00:55:34;100753.28;;;17.67;100.00
3142;BME280;1581;51.568;6.998;2023-07-13T00:58:02;100748.84;;;17.84;100.00
3142;BME280;1581;51.568;6.998;2023-07-13T01:00:43;100758.34;;;17.86;100.00
3142;BME280;1581;51.568;6.998;2023-07-13T01:03:13;100751.53;;;17.95;100.00
3142;BME280;1581;51.568;6.998;2023-07-13T01:05:41;100755.63;;;18.09;100.00
3142;BME280;1581;51.568;6.998;2023-07-13T01:08:10;100754.44;;;18.05;100.00
3142;BME280;1581;51.568;6.998;2023-07-13T01:10:39;100751.88;;;18.10;100.00
3142;BME280;1581;51.568;6.998;2023-07-13T01:13:10;100751.63;;;18.12;100.00
3142;BME280;1581;51.568;6.998;2023-07-13T01:15:41;100751.38;;;18.13;100.00
3142;BME280;1581;51.568;6.998;2023-07-13T01:18:12;100753.53;;;18.22;100.00
3142;BME280;1581;51.568;6.998;2023-07-13T01:20:48;100752.47;;;17.89;100.00
3142;BME280;1581;51.568;6.998;2023-07-13T01:23:16;100756.56;;;17.92;100.00
3142;BME280;1581;51.568;6.998;2023-07-13T01:25:45;100755.41;;;17.99;100.00
3142;BME280;1581;51.568;6.998;2023-07-13T01:28:13;100746.25;;;18.00;100.00
3142;BME280;1581;51.568;6.998;2023-07-13T01:30:45;100744.50;;;18.06;100.00
3142;BME280;1581;51.568;6.998;2023-07-13T01:33:14;100739.22;;;17.88;100.00
3142;BME280;1581;51.568;6.998;2023-07-13T01:35:42;100740.28;;;17.75;100.00
3142;BME280;1581;51.568;6.998;2023-07-13T01:38:14;100745.44;;;17.77;100.00
3142;BME280;1581;51.568;6.998;2023-07-13T01:40:42;100753.41;;;17.72;100.00
3142;BME280;1581;51.568;6.998;2023-07-13T01:43:10;100747.91;;;17.90;100.00
3142;BME280;1581;51.568;6.998;2023-07-13T01:45:38;100748.81;;;17.95;100.00
3142;BME280;1581;51.568;6.998;2023-07-13T01:48:06;100750.59;;;17.90;100.00
3142;BME280;1581;51.568;6.998;2023-07-13T01:50:36;100749.06;;;17.82;100.00
3142;BME280;1581;51.568;6.998;2023-07-13T01:53:04;100752.47;;;18.01;100.00
3142;BME280;1581;51.568;6.998;2023-07-13T01:55:34;100753.06;;;17.91;100.00
3142;BME280;1581;51.568;6.998;2023-07-13T01:58:04;100746.16;;;17.84;100.00
3142;BME280;1581;51.568;6.998;2023-07-13T02:00:32;100760.56;;;18.01;100.00
3142;BME280;1581;51.568;6.998;2023-07-13T02:03:01;100760.69;;;18.06;100.00
3142;BME280;1581;51.568;6.998;2023-07-13T02:05:29;100769.81;;;18.05;100.00
3142;BME280;1581;51.568;6.998;2023-07-13T02:08:03;100770.06;;;17.92;100.00
3142;BME280;1581;51.568;6.998;2023-07-13T02:10:34;100760.78;;;17.76;100.00
3142;BME280;1581;51.568;6.998;2023-07-13T02:13:04;100763.84;;;17.91;100.00
3142;BME280;1581;51.568;6.998;2023-07-13T02:15:32;100767.00;;;17.88;100.00
3142;BME280;1581;51.568;6.998;2023-07-13T02:18:00;100758.69;;;17.90;100.00
3142;BME280;1581;51.568;6.998;2023-07-13T02:20:36;100766.66;;;17.73;100.00
3142;BME280;1581;51.568;6.998;2023-07-13T02:23:04;100753.19;;;17.85;100.00
3142;BME280;1581;51.568;6.998;2023-07-13T02:25:33;100754.00;;;17.85;100.00
3142;BME280;1581;51.568;6.998;2023-07-13T02:28:03;100762.44;;;17.89;100.00
3142;BME280;1581;51.568;6.998;2023-07-13T02:30:31;100758.47;;;17.91;100.00
3142;BME280;1581;51.568;6.998;2023-07-13T02:32:59;100770.78;;;17.76;100.00
3142;BME280;1581;51.568;6.998;2023-07-13T02:35:27;100766.50;;;17.57;100.00
3142;BME280;1581;51.568;6.998;2023-07-13T02:37:55;100767.34;;;17.57;100.00
3142;BME280;1581;51.568;6.998;2023-07-13T02:40:23;100763.47;;;17.53;100.00
3142;BME280;1581;51.568;6.998;2023-07-13T02:42:55;100763.72;;;17.40;100.00
3142;BME280;1581;51.568;6.998;2023-07-13T02:45:23;100759.72;;;17.54;100.00
3142;BME280;1581;51.568;6.998;2023-07-13T02:47:50;100761.13;;;17.57;100.00
3142;BME280;1581;51.568;6.998;2023-07-13T02:50:18;100760.56;;;17.55;100.00
3142;BME280;1581;51.568;6.998;2023-07-13T02:53:02;100765.63;;;17.22;100.00
3142;BME280;1581;51.568;6.998;2023-07-13T02:55:45;100765.31;;;17.30;100.00
3142;BME280;1581;51.568;6.998;2023-07-13T02:58:16;100772.34;;;17.42;100.00
3142;BME280;1581;51.568;6.998;2023-07-13T03:00:46;100768.16;;;17.46;100.00
3142;BME280;1581;51.568;6.998;2023-07-13T03:03:17;100767.56;;;17.33;100.00
3142;BME280;1581;51.568;6.998;2023-07-13T03:05:45;100771.56;;;17.42;100.00
3142;BME280;1581;51.568;6.998;2023-07-13T03:08:17;100776.34;;;17.28;100.00
3142;BME280;1581;51.568;6.998;2023-07-13T03:11:00;100772.50;;;17.18;100.00
3142;BME280;1581;51.568;6.998;2023-07-13T03:13:31;100774.91;;;17.26;100.00
3142;BME280;1581;51.568;6.998;2023-07-13T03:15:59;100772.75;;;17.17;100.00
3142;BME280;1581;51.568;6.998;2023-07-13T03:18:29;100776.94;;;17.30;100.00
3142;BME280;1581;51.568;6.998;2023-07-13T03:20:58;100778.56;;;17.02;100.00
3142;BME280;1581;51.568;6.998;2023-07-13T03:23:27;100781.16;;;17.09;100.00
3142;BME280;1581;51.568;6.998;2023-07-13T03:26:05;100778.47;;;17.09;100.00
3142;BME280;1581;51.568;6.998;2023-07-13T03:28:39;100779.78;;;17.18;100.00
3142;BME280;1581;51.568;6.998;2023-07-13T03:31:17;100781.19;;;17.20;100.00
3142;BME280;1581;51.568;6.998;2023-07-13T03:33:47;100795.94;;;17.18;100.00
3142;BME280;1581;51.568;6.998;2023-07-13T03:36:18;100780.91;;;17.10;100.00
3142;BME280;1581;51.568;6.998;2023-07-13T03:38:50;100793.28;;;17.29;100.00
3142;BME280;1581;51.568;6.998;2023-07-13T03:41:22;100799.19;;;17.37;100.00
3142;BME280;1581;51.568;6.998;2023-07-13T03:43:54;100796.03;;;17.40;100.00
3142;BME280;1581;51.568;6.998;2023-07-13T03:46:25;100792.41;;;17.35;100.00
3142;BME280;1581;51.568;6.998;2023-07-13T03:48:55;100790.47;;;17.24;100.00
3142;BME280;1581;51.568;6.998;2023-07-13T03:51:28;100809.66;;;17.27;100.00
3142;BME280;1581;51.568;6.998;2023-07-13T03:54:07;100802.34;;;17.34;100.00
3142;BME280;1581;51.568;6.998;2023-07-13T03:56:39;100801.72;;;17.32;100.00
3142;BME280;1581;51.568;6.998;2023-07-13T03:59:13;100805.97;;;17.28;100.00
3142;BME280;1581;51.568;6.998;2023-07-13T04:01:50;100808.94;;;17.21;100.00
3142;BME280;1581;51.568;6.998;2023-07-13T04:04:20;100806.81;;;17.40;100.00
3142;BME280;1581;51.568;6.998;2023-07-13T04:06:51;100815.97;;;17.51;100.00
3142;BME280;1581;51.568;6.998;2023-07-13T04:09:21;100809.38;;;17.35;100.00
3142;BME280;1581;51.568;6.998;2023-07-13T04:11:51;100813.38;;;17.44;100.00
3142;BME280;1581;51.568;6.998;2023-07-13T04:14:25;100816.91;;;17.45;100.00
3142;BME280;1581;51.568;6.998;2023-07-13T04:16:54;100828.25;;;17.47;100.00
3142;BME280;1581;51.568;6.998;2023-07-13T04:19:28;100826.63;;;17.57;100.00
3142;BME280;1581;51.568;6.998;2023-07-13T04:22:06;100825.94;;;17.50;100.00
3142;BME280;1581;51.568;6.998;2023-07-13T04:25:02;100837.41;;;17.57;100.00
3142;BME280;1581;51.568;6.998;2023-07-13T04:27:36;100833.47;;;17.71;100.00
3142;BME280;1581;51.568;6.998;2023-07-13T04:30:10;100832.19;;;17.74;100.00
3142;BME280;1581;51.568;6.998;2023-07-13T04:32:53;100834.47;;;17.59;100.00
3142;BME280;1581;51.568;6.998;2023-07-13T04:35:26;100839.66;;;17.60;100.00
3142;BME280;1581;51.568;6.998;2023-07-13T04:37:56;100834.28;;;17.60;100.00
3142;BME280;1581;51.568;6.998;2023-07-13T04:40:28;100828.84;;;17.49;100.00
3142;BME280;1581;51.568;6.998;2023-07-13T04:42:58;100835.06;;;17.61;100.00
3142;BME280;1581;51.568;6.998;2023-07-13T04:45:42;100831.56;;;17.60;100.00
3142;BME280;1581;51.568;6.998;2023-07-13T04:48:11;100842.91;;;17.62;100.00
3142;BME280;1581;51.568;6.998;2023-07-13T04:50:40;100831.56;;;17.60;100.00
3142;BME280;1581;51.568;6.998;2023-07-13T04:53:10;100835.06;;;17.61;100.00
3142;BME280;1581;51.568;6.998;2023-07-13T04:55:46;100833.47;;;17.71;100.00
3142;BME280;1581;51.568;6.998;2023-07-13T04:58:23;100838.88;;;17.71;100.00
3142;BME280;1581;51.568;6.998;2023-07-13T05:01:01;100841.25;;;17.50;100.00
3142;BME280;1581;51.568;6.998;2023-07-13T05:03:35;100840.72;;;17.71;100.00
3142;BME280;1581;51.568;6.998;2023-07-13T05:06:06;100848.25;;;17.92;100.00
3142;BME280;1581;51.568;6.998;2023-07-13T05:08:40;100850.84;;;17.98;100.00
3142;BME280;1581;51.568;6.998;2023-07-13T05:11:12;100851.88;;;17.97;100.00
3142;BME280;1581;51.568;6.998;2023-07-13T05:13:41;100853.63;;;17.80;100.00
3142;BME280;1581;51.568;6.998;2023-07-13T05:16:15;100852.81;;;17.80;100.00
3142;BME280;1581;51.568;6.998;2023-07-13T05:18:45;100859.59;;;17.82;100.00
3142;BME280;1581;51.568;6.998;2023-07-13T05:21:13;100858.09;;;17.86;100.00
3142;BME280;1581;51.568;6.998;2023-07-13T05:23:42;100859.59;;;17.82;100.00
3142;BME280;1581;51.568;6.998;2023-07-13T05:26:14;100863.94;;;17.83;100.00
3142;BME280;1581;51.568;6.998;2023-07-13T05:28:46;100862.44;;;17.87;100.00
3142;BME280;1581;51.568;6.998;2023-07-13T05:31:15;100861.03;;;17.85;100.00
3142;BME280;1581;51.568;6.998;2023-07-13T05:33:44;100874.16;;;18.04;100.00
3142;BME280;1581;51.568;6.998;2023-07-13T05:36:15;100866.78;;;18.00;100.00
3142;BME280;1581;51.568;6.998;2023-07-13T05:38:44;100871.91;;;17.90;100.00
3142;BME280;1581;51.568;6.998;2023-07-13T05:41:14;100880.16;;;18.06;100.00
3142;BME280;1581;51.568;6.998;2023-07-13T05:43:44;100869.81;;;18.03;100.00
3142;BME280;1581;51.568;6.998;2023-07-13T05:46:14;100881.50;;;18.26;100.00
3142;BME280;1581;51.568;6.998;2023-07-13T05:48:43;100876.75;;;18.11;100.00
3142;BME280;1581;51.568;6.998;2023-07-13T05:51:12;100884.66;;;18.23;100.00
3142;BME280;1581;51.568;6.998;2023-07-13T05:53:40;100885.09;;;18.32;100.00
3142;BME280;1581;51.568;6.998;2023-07-13T05:56:12;100886.03;;;18.37;100.00
3142;BME280;1581;51.568;6.998;2023-07-13T05:58:40;100894.56;;;18.12;100.00
3142;BME280;1581;51.568;6.998;2023-07-13T06:01:12;100897.41;;;18.16;100.00
3142;BME280;1581;51.568;6.998;2023-07-13T06:03:45;100898.91;;;18.13;100.00
3142;BME280;1581;51.568;6.998;2023-07-13T06:06:13;100905.66;;;18.44;100.00
3142;BME280;1581;51.568;6.998;2023-07-13T06:08:41;100900.97;;;18.40;100.00
3142;BME280;1581;51.568;6.998;2023-07-13T06:11:13;100899.75;;;18.47;100.00
3142;BME280;1581;51.568;6.998;2023-07-13T06:13:42;100897.88;;;18.71;100.00
3142;BME280;1581;51.568;6.998;2023-07-13T06:16:11;100908.56;;;18.43;100.00
3142;BME280;1581;51.568;6.998;2023-07-13T06:18:52;100905.88;;;18.31;100.00
3142;BME280;1581;51.568;6.998;2023-07-13T06:21:41;100911.41;;;18.48;100.00
3142;BME280;1581;51.568;6.998;2023-07-13T06:24:22;100921.25;;;18.65;100.00
3142;BME280;1581;51.568;6.998;2023-07-13T06:26:53;100916.53;;;18.49;100.00
3142;BME280;1581;51.568;6.998;2023-07-13T06:29:21;100923.34;;;18.63;100.00
3142;BME280;1581;51.568;6.998;2023-07-13T06:32:01;100922.31;;;18.64;100.00
3142;BME280;1581;51.568;6.998;2023-07-13T06:34:34;100934.72;;;18.54;100.00
3142;BME280;1581;51.568;6.998;2023-07-13T06:37:02;100930.25;;;18.82;100.00
3142;BME280;1581;51.568;6.998;2023-07-13T06:39:30;100936.31;;;19.12;100.00
3142;BME280;1581;51.568;6.998;2023-07-13T06:41:58;100937.94;;;19.01;100.00
3142;BME280;1581;51.568;6.998;2023-07-13T06:44:26;100929.69;;;18.69;100.00
3142;BME280;1581;51.568;6.998;2023-07-13T06:46:54;100934.88;;;18.59;100.00
3142;BME280;1581;51.568;6.998;2023-07-13T06:49:33;100943.31;;;18.51;100.00
3142;BME280;1581;51.568;6.998;2023-07-13T06:52:04;100941.19;;;18.64;100.00
3142;BME280;1581;51.568;6.998;2023-07-13T06:54:32;100939.78;;;18.73;100.00
3142;BME280;1581;51.568;6.998;2023-07-13T06:57:01;100938.19;;;19.00;100.00
3142;BME280;1581;51.568;6.998;2023-07-13T06:59:29;100937.97;;;19.13;100.00
3142;BME280;1581;51.568;6.998;2023-07-13T07:01:58;100946.31;;;19.11;100.00
3142;BME280;1581;51.568;6.998;2023-07-13T07:04:28;100935.16;;;18.97;100.00
3142;BME280;1581;51.568;6.998;2023-07-13T07:06:59;100946.56;;;18.99;100.00
3142;BME280;1581;51.568;6.998;2023-07-13T07:09:29;100948.41;;;19.09;100.00
3142;BME280;1581;51.568;6.998;2023-07-13T07:11:58;100947.94;;;19.12;100.00
3142;BME280;1581;51.568;6.998;2023-07-13T07:14:25;100950.53;;;19.07;100.00
3142;BME280;1581;51.568;6.998;2023-07-13T07:16:53;100949.06;;;19.28;100.00
3142;BME280;1581;51.568;6.998;2023-07-13T07:19:21;100956.84;;;19.52;100.00
3142;BME280;1581;51.568;6.998;2023-07-13T07:21:52;100957.16;;;19.67;100.00
3142;BME280;1581;51.568;6.998;2023-07-13T07:24:20;100959.66;;;19.85;100.00
3142;BME280;1581;51.568;6.998;2023-07-13T07:26:49;100962.16;;;19.75;100.00
3142;BME280;1581;51.568;6.998;2023-07-13T07:29:17;100957.00;;;19.74;100.00
3142;BME280;1581;51.568;6.998;2023-07-13T07:32:01;100968.03;;;19.56;100.00
3142;BME280;1581;51.568;6.998;2023-07-13T07:34:36;100956.94;;;19.85;100.00
3142;BME280;1581;51.568;6.998;2023-07-13T07:37:06;100955.16;;;19.90;100.00
3142;BME280;1581;51.568;6.998;2023-07-13T07:39:38;100955.41;;;19.89;100.00
3142;BME280;1581;51.568;6.998;2023-07-13T07:42:12;100958.56;;;19.70;100.00
3142;BME280;1581;51.568;6.998;2023-07-13T07:44:46;100961.13;;;19.76;100.00
3142;BME280;1581;51.568;6.998;2023-07-13T07:47:17;100960.09;;;19.93;100.00
3142;BME280;1581;51.568;6.998;2023-07-13T07:49:56;100960.13;;;19.82;100.00
3142;BME280;1581;51.568;6.998;2023-07-13T07:52:26;100954.72;;;19.82;100.00
3142;BME280;1581;51.568;6.998;2023-07-13T07:55:06;100955.97;;;20.19;100.00
3142;BME280;1581;51.568;6.998;2023-07-13T07:57:45;100952.00;;;20.26;100.00
3142;BME280;1581;51.568;6.998;2023-07-13T08:00:15;100956.28;;;20.22;100.00
3142;BME280;1581;51.568;6.998;2023-07-13T08:02:44;100944.78;;;20.32;100.00
3142;BME280;1581;51.568;6.998;2023-07-13T08:05:12;100953.75;;;20.32;100.00
3142;BME280;1581;51.568;6.998;2023-07-13T08:07:44;100948.59;;;20.31;100.00
3142;BME280;1581;51.568;6.998;2023-07-13T08:10:15;100956.44;;;20.65;100.00
3142;BME280;1581;51.568;6.998;2023-07-13T08:12:44;100950.34;;;20.58;100.00
3142;BME280;1581;51.568;6.998;2023-07-13T08:15:16;100951.78;;;20.44;100.00
3142;BME280;1581;51.568;6.998;2023-07-13T08:17:47;100954.16;;;20.08;100.00
3142;BME280;1581;51.568;6.998;2023-07-13T08:20:16;100952.06;;;19.98;100.00
3142;BME280;1581;51.568;6.998;2023-07-13T08:22:44;100953.09;;;20.25;100.00
3142;BME280;1581;51.568;6.998;2023-07-13T08:25:12;100957.91;;;20.07;100.00
3142;BME280;1581;51.568;6.998;2023-07-13T08:27:40;100951.03;;;20.16;100.00
3142;BME280;1581;51.568;6.998;2023-07-13T08:30:10;100956.53;;;20.21;100.00
3142;BME280;1581;51.568;6.998;2023-07-13T08:32:38;100954.28;;;20.01;100.00
3142;BME280;1581;51.568;6.998;2023-07-13T08:35:07;100959.44;;;20.03;100.00
3142;BME280;1581;51.568;6.998;2023-07-13T08:37:35;100957.81;;;20.18;100.00
3142;BME280;1581;51.568;6.998;2023-07-13T08:40:04;100961.84;;;20.49;100.00
3142;BME280;1581;51.568;6.998;2023-07-13T08:42:38;100954.09;;;20.74;100.00
3142;BME280;1581;51.568;6.998;2023-07-13T08:45:17;100956.75;;;21.06;100.00
3142;BME280;1581;51.568;6.998;2023-07-13T08:47:53;100957.19;;;20.98;100.00
3142;BME280;1581;51.568;6.998;2023-07-13T08:50:27;100959.41;;;21.23;100.00
3142;BME280;1581;51.568;6.998;2023-07-13T08:52:56;100958.22;;;21.83;98.40
3142;BME280;1581;51.568;6.998;2023-07-13T08:55:29;100964.06;;;23.00;94.92
3142;BME280;1581;51.568;6.998;2023-07-13T08:58:05;100967.16;;;23.14;90.53
3142;BME280;1581;51.568;6.998;2023-07-13T09:00:47;100968.50;;;23.16;89.21
3142;BME280;1581;51.568;6.998;2023-07-13T09:03:24;100962.00;;;23.17;88.76
3142;BME280;1581;51.568;6.998;2023-07-13T09:09:50;100965.59;;;23.38;87.46
3142;BME280;1581;51.568;6.998;2023-07-13T09:12:30;100968.75;;;23.86;83.38
3142;BME280;1581;51.568;6.998;2023-07-13T09:15:05;100971.78;;;24.09;80.55
3142;BME280;1581;51.568;6.998;2023-07-13T09:17:47;100970.09;;;23.78;81.21
3142;BME280;1581;51.568;6.998;2023-07-13T09:20:23;100970.94;;;23.94;83.37
3142;BME280;1581;51.568;6.998;2023-07-13T09:22:57;100972.91;;;24.23;80.05
3142;BME280;1581;51.568;6.998;2023-07-13T09:25:31;100971.25;;;24.17;80.53
3142;BME280;1581;51.568;6.998;2023-07-13T09:28:05;100976.44;;;24.53;80.78
3142;BME280;1581;51.568;6.998;2023-07-13T09:30:43;100977.78;;;24.71;79.52
3142;BME280;1581;51.568;6.998;2023-07-13T09:33:12;100976.72;;;24.57;73.73
3142;BME280;1581;51.568;6.998;2023-07-13T09:35:41;100985.16;;;24.31;77.86
3142;BME280;1581;51.568;6.998;2023-07-13T09:38:14;100986.47;;;23.83;81.26
3142;BME280;1581;51.568;6.998;2023-07-13T09:41:03;100977.53;;;24.18;79.36
3142;BME280;1581;51.568;6.998;2023-07-13T09:43:35;100978.00;;;23.75;81.68
3142;BME280;1581;51.568;6.998;2023-07-13T09:46:03;100985.44;;;23.28;85.64
3142;BME280;1581;51.568;6.998;2023-07-13T09:48:36;100966.47;;;23.48;87.81
3142;BME280;1581;51.568;6.998;2023-07-13T09:51:14;100978.34;;;24.33;82.58
3142;BME280;1581;51.568;6.998;2023-07-13T09:53:45;100978.59;;;24.76;75.03
3142;BME280;1581;51.568;6.998;2023-07-13T09:56:22;100984.31;;;24.95;72.63
3142;BME280;1581;51.568;6.998;2023-07-13T09:58:51;100980.47;;;23.96;79.14
3142;BME280;1581;51.568;6.998;2023-07-13T10:01:34;100974.88;;;23.42;81.88
3142;BME280;1581;51.568;6.998;2023-07-13T10:04:09;100982.19;;;22.85;85.83
3142;BME280;1581;51.568;6.998;2023-07-13T10:06:40;100973.97;;;22.39;89.33
3142;BME280;1581;51.568;6.998;2023-07-13T10:09:10;100982.75;;;22.51;90.12
3142;BME280;1581;51.568;6.998;2023-07-13T10:11:43;100980.69;;;22.31;91.32
3142;BME280;1581;51.568;6.998;2023-07-13T10:14:15;100991.44;;;22.21;91.92
3142;BME280;1581;51.568;6.998;2023-07-13T10:16:46;100986.72;;;22.38;90.42
3142;BME280;1581;51.568;6.998;2023-07-13T10:19:26;101003.63;;;23.28;86.12
3142;BME280;1581;51.568;6.998;2023-07-13T10:21:56;100998.84;;;23.49;84.64
3142;BME280;1581;51.568;6.998;2023-07-13T10:24:30;100999.84;;;24.00;83.23
3142;BME280;1581;51.568;6.998;2023-07-13T10:27:10;101001.50;;;24.90;79.39
3142;BME280;1581;51.568;6.998;2023-07-13T10:29:52;100997.47;;;25.51;77.63
3142;BME280;1581;51.568;6.998;2023-07-13T10:32:24;100993.84;;;24.87;73.30
3142;BME280;1581;51.568;6.998;2023-07-13T10:34:52;100999.16;;;25.47;66.61
3142;BME280;1581;51.568;6.998;2023-07-13T10:37:26;100994.13;;;24.81;67.63
3142;BME280;1581;51.568;6.998;2023-07-13T10:39:56;100989.50;;;24.41;74.45
3142;BME280;1581;51.568;6.998;2023-07-13T10:42:30;100999.59;;;24.21;73.01
3142;BME280;1581;51.568;6.998;2023-07-13T10:45:00;101005.63;;;25.61;66.48
3142;BME280;1581;51.568;6.998;2023-07-13T10:47:29;101000.91;;;25.81;61.72
3142;BME280;1581;51.568;6.998;2023-07-13T10:50:00;101000.47;;;26.08;62.20
3142;BME280;1581;51.568;6.998;2023-07-13T10:52:45;101009.69;;;30.16;45.52
3142;BME280;1581;51.568;6.998;2023-07-13T10:55:39;101022.00;;;32.43;40.38
3142;BME280;1581;51.568;6.998;2023-07-13T10:58:20;101022.13;;;33.35;38.55
3142;BME280;1581;51.568;6.998;2023-07-13T11:00:56;101031.41;;;34.17;35.22
3142;BME280;1581;51.568;6.998;2023-07-13T11:03:28;101025.06;;;32.50;37.77
3142;BME280;1581;51.568;6.998;2023-07-13T11:06:11;101039.09;;;34.52;34.91
3142;BME280;1581;51.568;6.998;2023-07-13T11:08:54;101041.53;;;35.90;33.19
3142;BME280;1581;51.568;6.998;2023-07-13T11:11:38;101017.34;;;31.54;38.57
3142;BME280;1581;51.568;6.998;2023-07-13T11:14:30;101020.03;;;31.93;37.39
3142;BME280;1581;51.568;6.998;2023-07-13T11:16:58;101029.63;;;33.92;35.55
3142;BME280;1581;51.568;6.998;2023-07-13T11:19:41;101009.81;;;28.77;43.19
3142;BME280;1581;51.568;6.998;2023-07-13T11:22:20;100999.09;;;27.05;48.66
3142;BME280;1581;51.568;6.998;2023-07-13T11:25:02;100985.06;;;25.83;56.56
3142;BME280;1581;51.568;6.998;2023-07-13T11:27:40;100988.44;;;25.65;59.42
3142;BME280;1581;51.568;6.998;2023-07-13T11:30:35;101022.16;;;32.72;39.40
3142;BME280;1581;51.568;6.998;2023-07-13T11:33:19;101001.09;;;30.75;39.46
3142;BME280;1581;51.568;6.998;2023-07-13T11:35:58;101002.91;;;30.58;39.40
3142;BME280;1581;51.568;6.998;2023-07-13T11:38:35;101009.13;;;32.89;37.34
3142;BME280;1581;51.568;6.998;2023-07-13T11:41:10;101009.25;;;30.45;38.91
3142;BME280;1581;51.568;6.998;2023-07-13T11:43:40;101020.19;;;35.19;32.44
3142;BME280;1581;51.568;6.998;2023-07-13T11:46:21;101029.91;;;38.74;28.53
3142;BME280;1581;51.568;6.998;2023-07-13T11:48:51;101031.91;;;38.73;26.63
3142;BME280;1581;51.568;6.998;2023-07-13T11:51:24;101035.72;;;39.29;25.16
3142;BME280;1581;51.568;6.998;2023-07-13T11:53:56;101003.19;;;35.08;30.07
3142;BME280;1581;51.568;6.998;2023-07-13T11:56:24;100999.56;;;32.78;34.01
3142;BME280;1581;51.568;6.998;2023-07-13T11:58:56;101000.78;;;31.46;35.40
3142;BME280;1581;51.568;6.998;2023-07-13T12:01:31;100994.72;;;30.96;35.78
3142;BME280;1581;51.568;6.998;2023-07-13T12:04:02;100983.44;;;29.62;39.21
3142;BME280;1581;51.568;6.998;2023-07-13T12:06:32;100994.34;;;28.17;41.64
3142;BME280;1581;51.568;6.998;2023-07-13T12:09:11;100980.97;;;27.56;43.75
3142;BME280;1581;51.568;6.998;2023-07-13T12:11:43;100982.72;;;27.47;45.01
3142;BME280;1581;51.568;6.998;2023-07-13T12:14:16;100982.84;;;27.37;46.21
3142;BME280;1581;51.568;6.998;2023-07-13T12:16:47;100970.22;;;28.01;45.42
3142;BME280;1581;51.568;6.998;2023-07-13T12:19:20;100964.72;;;27.83;44.32
3142;BME280;1581;51.568;6.998;2023-07-13T12:21:50;100972.66;;;27.84;45.16
3142;BME280;1581;51.568;6.998;2023-07-13T12:24:20;100963.22;;;28.27;44.94
3142;BME280;1581;51.568;6.998;2023-07-13T12:26:52;100955.88;;;28.41;43.73
3142;BME280;1581;51.568;6.998;2023-07-13T12:29:21;100955.84;;;28.73;43.66
3142;BME280;1581;51.568;6.998;2023-07-13T12:31:51;100952.78;;;28.74;41.15
3142;BME280;1581;51.568;6.998;2023-07-13T12:34:21;100968.66;;;27.77;42.75
3142;BME280;1581;51.568;6.998;2023-07-13T12:36:53;100969.84;;;27.47;44.96
3142;BME280;1581;51.568;6.998;2023-07-13T12:39:24;100969.34;;;27.22;45.64
3142;BME280;1581;51.568;6.998;2023-07-13T12:41:54;100976.06;;;27.94;44.29
3142;BME280;1581;51.568;6.998;2023-07-13T12:44:30;100967.50;;;27.59;43.31
3142;BME280;1581;51.568;6.998;2023-07-13T12:47:05;100978.41;;;27.41;45.00
3142;BME280;1581;51.568;6.998;2023-07-13T12:49:43;100968.81;;;27.62;44.25
3142;BME280;1581;51.568;6.998;2023-07-13T12:52:22;100971.47;;;26.78;46.44
3142;BME280;1581;51.568;6.998;2023-07-13T12:54:56;100962.47;;;26.11;47.04
3142;BME280;1581;51.568;6.998;2023-07-13T12:57:25;100978.81;;;25.73;50.34
3142;BME280;1581;51.568;6.998;2023-07-13T12:59:53;100978.56;;;24.81;52.35
3142;BME280;1581;51.568;6.998;2023-07-13T13:02:32;101004.53;;;24.54;56.19
3142;BME280;1581;51.568;6.998;2023-07-13T13:05:03;101048.88;;;24.20;64.09
3142;BME280;1581;51.568;6.998;2023-07-13T13:07:32;101038.41;;;23.16;72.68
3142;BME280;1581;51.568;6.998;2023-07-13T13:10:00;101035.47;;;22.91;83.54
3142;BME280;1581;51.568;6.998;2023-07-13T13:12:28;101054.38;;;22.40;90.64
3142;BME280;1581;51.568;6.998;2023-07-13T13:14:56;101039.91;;;21.86;91.45
3142;BME280;1581;51.568;6.998;2023-07-13T13:17:31;101046.53;;;21.69;97.21
3142;BME280;1581;51.568;6.998;2023-07-13T13:20:26;101041.09;;;21.69;98.19
3142;BME280;1581;51.568;6.998;2023-07-13T13:23:30;101053.84;;;21.52;100.00
3142;BME280;1581;51.568;6.998;2023-07-13T13:26:07;101042.63;;;21.60;100.00
3142;BME280;1581;51.568;6.998;2023-07-13T13:28:51;101039.75;;;21.71;99.88
3142;BME280;1581;51.568;6.998;2023-07-13T13:31:51;101034.00;;;21.89;99.06
3142;BME280;1581;51.568;6.998;2023-07-13T13:34:53;101033.16;;;22.37;97.96
3142;BME280;1581;51.568;6.998;2023-07-13T13:37:39;101028.84;;;22.77;96.07